createdAt,value
2022-10-18T00:02:00.281Z,65.93
2022-10-18T00:04:28.055Z,71.00
2022-10-18T00:06:55.819Z,67.18
2022-10-18T00:09:23.805Z,70.60
2022-10-18T00:11:51.706Z,64.47
2022-10-18T00:14:19.295Z,72.07
2022-10-18T00:16:46.745Z,71.35
2022-10-18T00:19:14.468Z,70.03
2022-10-18T00:24:13.050Z,75.30
2022-10-18T00:26:41.161Z,72.45
2022-10-18T00:29:14.501Z,67.05
2022-10-18T00:31:47.454Z,61.92
2022-10-18T00:34:24.399Z,68.30
2022-10-18T00:36:52.451Z,68.32
2022-10-18T00:39:22.663Z,66.22
2022-10-18T00:41:51.619Z,65.45
2022-10-18T00:44:19.677Z,66.38
2022-10-18T00:46:49.477Z,62.97
2022-10-18T00:49:23.878Z,68.13
2022-10-18T00:52:01.243Z,65.68
2022-10-18T00:54:32.648Z,67.75
2022-10-18T00:57:01.952Z,66.10
2022-10-18T00:59:30.348Z,66.00
2022-10-18T01:02:01.001Z,57.97
2022-10-18T01:04:28.929Z,60.17
2022-10-18T01:07:08.943Z,63.22
2022-10-18T01:14:43.818Z,57.47
2022-10-18T01:27:10.513Z,52.42
2022-10-18T01:30:02.279Z,51.65
2022-10-18T01:32:39.419Z,51.42
2022-10-18T01:35:18.189Z,55.28
2022-10-18T01:37:50.122Z,56.15
2022-10-18T01:40:22.587Z,52.90
2022-10-18T01:42:51.345Z,51.42
2022-10-18T01:45:21.932Z,51.53
2022-10-18T01:47:51.833Z,56.90
2022-10-18T01:50:33.517Z,52.72
2022-10-18T01:57:16.884Z,46.45
2022-10-18T02:00:44.927Z,48.75
2022-10-18T02:03:22.436Z,51.15
2022-10-18T02:06:00.209Z,49.58
2022-10-18T02:08:37.106Z,47.90
2022-10-18T02:11:12.906Z,43.78
2022-10-18T02:14:07.555Z,52.22
2022-10-18T02:16:51.956Z,46.22
2022-10-18T02:19:26.597Z,48.22
2022-10-18T02:21:57.923Z,47.15
2022-10-18T02:24:35.848Z,38.55
2022-10-18T02:27:04.712Z,42.08
2022-10-18T02:29:36.392Z,41.85
2022-10-18T02:32:38.786Z,36.20
2022-10-18T02:35:36.569Z,40.30
2022-10-18T02:38:07.716Z,38.22
2022-10-18T02:40:36.423Z,43.67
2022-10-18T02:43:07.435Z,36.33
2022-10-18T02:45:36.105Z,38.33
2022-10-18T02:48:13.954Z,39.58
2022-10-18T02:50:49.291Z,37.65
2022-10-18T02:53:17.654Z,38.03
2022-10-18T02:55:46.155Z,38.28
2022-10-18T02:58:15.841Z,36.90
2022-10-18T03:00:43.814Z,34.47
2022-10-18T03:03:11.466Z,36.50
2022-10-18T03:05:39.398Z,36.92
2022-10-18T03:17:50.570Z,37.07
2022-10-18T03:22:01.263Z,38.03
2022-10-18T03:24:29.085Z,33.10
2022-10-18T03:26:59.440Z,35.53
2022-10-18T03:29:27.126Z,33.25
2022-10-18T03:31:54.751Z,40.30
2022-10-18T03:34:22.554Z,35.15
2022-10-18T03:36:50.122Z,41.92
2022-10-18T03:39:17.962Z,50.55
2022-10-18T03:41:46.008Z,38.38
2022-10-18T03:44:13.212Z,41.00
2022-10-18T03:46:40.877Z,41.85
2022-10-18T03:49:08.114Z,43.97
2022-10-18T03:51:35.337Z,41.63
2022-10-18T03:54:02.523Z,35.30
2022-10-18T03:56:29.691Z,39.60
2022-10-18T03:58:57.233Z,38.85
2022-10-18T04:01:24.772Z,37.33
2022-10-18T04:03:52.015Z,38.08
2022-10-18T04:06:19.158Z,45.42
2022-10-18T04:08:46.734Z,42.95
2022-10-18T04:11:14.303Z,38.92
2022-10-18T04:13:43.720Z,39.20
2022-10-18T04:16:12.926Z,34.80
2022-10-18T04:18:40.145Z,38.55
2022-10-18T04:21:18.108Z,42.17
2022-10-18T04:23:50.682Z,36.92
2022-10-18T04:28:45.557Z,40.78
2022-10-18T04:31:12.795Z,38.58
2022-10-18T04:33:39.962Z,41.88
2022-10-18T04:36:13.202Z,53.75
2022-10-18T04:38:43.235Z,48.35
2022-10-18T04:41:10.307Z,49.75
2022-10-18T04:43:40.098Z,45.92
2022-10-18T04:46:07.154Z,43.75
2022-10-18T04:48:34.264Z,81.30
2022-10-18T04:51:01.484Z,54.45
2022-10-18T04:53:28.630Z,65.53
2022-10-18T04:55:55.706Z,48.13
2022-10-18T04:58:23.014Z,52.50
2022-10-18T05:00:50.840Z,50.42
2022-10-18T05:03:18.787Z,51.70
2022-10-18T05:06:03.081Z,56.22
2022-10-18T05:08:33.378Z,59.13
2022-10-18T05:11:01.417Z,61.63
2022-10-18T05:13:29.015Z,66.10
2022-10-18T05:15:56.045Z,59.28
2022-10-18T05:18:23.204Z,62.40
2022-10-18T05:20:50.324Z,68.63
2022-10-18T05:23:17.688Z,63.83
2022-10-18T05:25:44.977Z,61.47
2022-10-18T05:28:34.575Z,69.80
2022-10-18T05:31:05.655Z,57.75
2022-10-18T05:33:33.323Z,60.60
2022-10-18T05:36:00.486Z,59.22
2022-10-18T05:38:27.693Z,58.10
2022-10-18T05:40:54.730Z,59.22
2022-10-18T05:43:22.099Z,55.15
2022-10-18T05:45:51.093Z,62.42
2022-10-18T05:48:18.995Z,62.30
2022-10-18T05:50:46.780Z,59.22
2022-10-18T05:53:35.302Z,59.35
2022-10-18T05:56:06.148Z,60.45
2022-10-18T05:58:33.861Z,57.20
2022-10-18T06:01:03.730Z,60.80
2022-10-18T06:03:31.259Z,62.30
2022-10-18T06:06:12.768Z,59.22
2022-10-18T06:08:44.207Z,62.17
2022-10-18T06:11:16.515Z,65.82
2022-10-18T06:13:46.085Z,63.03
2022-10-18T06:16:15.782Z,65.47
2022-10-18T06:18:43.114Z,61.50
2022-10-18T06:21:10.677Z,55.85
2022-10-18T06:23:37.950Z,64.75
2022-10-18T06:26:08.884Z,61.90
2022-10-18T06:28:37.899Z,54.97
2022-10-18T06:31:06.610Z,61.53
2022-10-18T06:33:42.298Z,59.67
2022-10-18T06:36:16.174Z,53.95
2022-10-18T06:38:43.750Z,53.95
2022-10-18T06:41:13.566Z,57.95
2022-10-18T06:43:42.237Z,47.17
2022-10-18T06:46:09.811Z,47.53
2022-10-18T06:48:38.821Z,52.88
2022-10-18T06:51:07.614Z,50.60
2022-10-18T06:56:43.892Z,46.78
2022-10-18T06:59:11.084Z,42.75
2022-10-18T07:01:38.394Z,46.03
2022-10-18T07:04:05.562Z,46.90
2022-10-18T07:06:32.622Z,43.65
2022-10-18T07:09:00.236Z,43.22
2022-10-18T07:11:27.686Z,42.78
2022-10-18T07:14:05.194Z,45.20
2022-10-18T07:16:33.858Z,44.05
2022-10-18T07:19:00.931Z,38.15
2022-10-18T07:21:31.471Z,49.03
2022-10-18T07:23:59.179Z,41.72
2022-10-18T07:26:30.773Z,40.58
2022-10-18T07:29:21.967Z,44.05
2022-10-18T07:31:49.251Z,43.70
2022-10-18T07:34:16.407Z,40.00
2022-10-18T07:36:43.646Z,40.50
2022-10-18T07:39:16.841Z,40.42
2022-10-18T07:41:43.904Z,39.58
2022-10-18T07:44:32.660Z,40.65
2022-10-18T07:50:17.637Z,39.03
2022-10-18T07:52:44.801Z,36.72
2022-10-18T07:55:11.943Z,40.00
2022-10-18T07:57:39.292Z,40.40
2022-10-18T08:00:09.001Z,41.50
2022-10-18T08:02:38.783Z,41.95
2022-10-18T08:05:06.252Z,38.05
2022-10-18T08:07:34.018Z,36.08
2022-10-18T08:10:01.743Z,38.88
2022-10-18T08:12:29.471Z,46.95
2022-10-18T08:14:56.823Z,36.83
2022-10-18T08:17:24.098Z,39.38
2022-10-18T08:20:04.741Z,36.67
2022-10-18T08:22:38.808Z,37.85
2022-10-18T08:25:18.116Z,41.70
2022-10-18T08:27:49.068Z,36.75
2022-10-18T08:30:16.926Z,43.67
2022-10-18T08:32:44.102Z,38.58
2022-10-18T08:35:11.225Z,41.50
2022-10-18T08:37:38.513Z,39.20
2022-10-18T08:40:06.734Z,40.45
2022-10-18T08:42:52.700Z,35.17
2022-10-18T08:45:37.441Z,36.42
2022-10-18T08:48:07.453Z,38.80
2022-10-18T08:50:37.807Z,44.67
2022-10-18T08:53:23.142Z,46.80
2022-10-18T08:56:14.495Z,34.88
2022-10-18T08:58:44.656Z,38.70
2022-10-18T09:01:40.795Z,33.05
2022-10-18T09:04:42.979Z,36.50
2022-10-18T09:07:37.640Z,35.92
2022-10-18T09:10:26.515Z,35.17
2022-10-18T09:13:46.799Z,46.90
2022-10-18T09:16:27.240Z,40.55
2022-10-18T09:19:58.149Z,37.40
2022-10-18T09:22:59.045Z,40.42
2022-10-18T09:25:47.196Z,35.15
2022-10-18T09:28:45.586Z,37.17
2022-10-18T09:31:49.658Z,36.13
2022-10-18T09:34:40.055Z,43.88
2022-10-18T09:37:16.541Z,38.65
2022-10-18T10:07:28.619Z,38.97
2022-10-18T10:08:13.255Z,42.40
2022-10-18T10:10:48.002Z,36.15
2022-10-18T10:13:27.749Z,36.80
2022-10-18T10:16:02.168Z,46.88
2022-10-18T10:19:02.076Z,35.92
2022-10-18T10:36:34.292Z,35.88
2022-10-18T10:39:19.208Z,40.83
2022-10-18T10:42:00.111Z,39.42
2022-10-18T10:44:32.854Z,34.45
2022-10-18T10:47:13.048Z,38.85
2022-10-18T10:55:11.101Z,34.75
2022-10-18T10:57:50.875Z,33.63
2022-10-18T11:05:06.761Z,30.15
2022-10-18T11:08:05.399Z,30.92
2022-10-18T11:10:45.994Z,28.15
2022-10-18T11:13:36.986Z,28.45
2022-10-18T11:16:36.728Z,23.60
2022-10-18T11:20:05.710Z,25.35
2022-10-18T11:22:58.450Z,22.55
2022-10-18T11:25:40.002Z,20.15
2022-10-18T11:28:52.277Z,20.90
2022-10-18T11:32:01.872Z,26.52
2022-10-18T11:44:08.866Z,20.88
2022-10-18T11:47:12.954Z,17.35
2022-10-18T11:50:15.713Z,13.77
2022-10-18T11:53:01.040Z,14.27
2022-10-18T11:56:48.875Z,16.60
2022-10-18T12:00:12.013Z,19.85
2022-10-18T12:03:44.593Z,14.75
2022-10-18T12:06:25.083Z,14.18
2022-10-18T12:09:03.717Z,11.57
2022-10-18T12:11:55.812Z,10.10
2022-10-18T12:14:52.512Z,10.77
2022-10-18T12:17:47.657Z,9.38
2022-10-18T12:20:24.794Z,9.73
2022-10-18T12:23:01.443Z,8.85
2022-10-18T12:25:33.396Z,10.43
2022-10-18T12:28:04.443Z,7.78
2022-10-18T12:30:37.769Z,7.53
2022-10-18T12:33:28.996Z,9.07
2022-10-18T12:36:14.811Z,5.97
2022-10-18T12:38:47.301Z,6.78
2022-10-18T12:41:33.519Z,5.10
2022-10-18T12:44:03.832Z,5.80
2022-10-18T12:46:55.100Z,6.68
2022-10-18T12:49:41.339Z,4.25
2022-10-18T12:52:24.821Z,7.70
2022-10-18T12:55:13.916Z,9.60
2022-10-18T12:57:53.320Z,5.38
2022-10-18T13:00:35.673Z,7.38
2022-10-18T13:03:17.909Z,6.63
2022-10-18T13:05:53.273Z,4.90
2022-10-18T13:08:27.912Z,7.32
2022-10-18T13:11:10.536Z,6.60
2022-10-18T13:14:08.681Z,4.60
2022-10-18T13:17:13.723Z,4.35
2022-10-18T13:20:25.480Z,7.03
2022-10-18T13:23:12.074Z,5.00
2022-10-18T13:26:11.237Z,4.28
2022-10-18T13:29:09.488Z,3.42
2022-10-18T13:32:07.545Z,3.75
2022-10-18T13:34:39.217Z,7.28
2022-10-18T13:37:09.046Z,4.40
2022-10-18T13:39:39.285Z,4.15
2022-10-18T13:42:15.132Z,6.57
2022-10-18T13:44:44.887Z,6.60
2022-10-18T13:47:33.804Z,7.25
2022-10-18T13:50:31.066Z,5.05
2022-10-18T13:53:07.211Z,5.45
2022-10-18T13:56:40.909Z,6.43
2022-10-18T13:59:40.808Z,6.05
2022-10-18T14:02:36.496Z,5.97
2022-10-18T14:05:32.702Z,8.63
2022-10-18T14:08:32.040Z,7.45
2022-10-18T14:11:16.386Z,6.13
2022-10-18T14:13:52.408Z,4.85
2022-10-18T14:16:40.747Z,5.05
2022-10-18T14:19:48.057Z,8.50
2022-10-18T14:22:40.769Z,5.85
2022-10-18T14:25:37.774Z,6.82
2022-10-18T14:28:27.289Z,7.32
2022-10-18T14:31:11.979Z,4.75
2022-10-18T15:05:00.542Z,3.65
2022-10-18T15:08:29.220Z,6.18
2022-10-18T15:29:43.199Z,6.55
2022-10-18T15:40:22.568Z,5.47
2022-10-18T15:46:00.310Z,6.22
2022-10-18T15:48:49.017Z,5.57
2022-10-18T15:51:50.633Z,3.95
2022-10-18T15:54:42.580Z,4.55
2022-10-18T15:57:11.097Z,8.00
2022-10-18T15:59:52.502Z,5.15
2022-10-18T16:02:20.662Z,5.63
2022-10-18T16:05:21.435Z,4.88
2022-10-18T16:07:55.312Z,3.78
2022-10-18T16:10:22.544Z,3.60
2022-10-18T16:12:49.755Z,5.47
2022-10-18T16:15:17.084Z,4.68
2022-10-18T16:17:44.488Z,6.13
2022-10-18T16:20:24.469Z,5.90
2022-10-18T16:22:59.138Z,4.65
2022-10-18T16:25:46.601Z,4.63
2022-10-18T16:28:34.074Z,8.30
2022-10-18T16:31:05.395Z,5.45
2022-10-18T16:33:33.076Z,8.75
2022-10-18T16:36:00.357Z,7.35
2022-10-18T16:38:37.116Z,5.68
2022-10-18T16:41:07.637Z,8.63
2022-10-18T16:43:35.736Z,7.80
2022-10-18T16:46:04.542Z,7.95
2022-10-18T16:48:32.308Z,8.80
2022-10-18T16:50:59.929Z,8.05
2022-10-18T16:53:28.110Z,9.25
2022-10-18T16:56:00.117Z,7.38
2022-10-18T16:58:38.984Z,6.78
2022-10-18T17:01:52.250Z,5.75
2022-10-18T17:04:43.128Z,6.55
2022-10-18T17:07:24.974Z,4.97
2022-10-18T17:09:52.310Z,5.85
2022-10-18T17:12:19.544Z,4.82
2022-10-18T17:14:46.942Z,11.13
2022-10-18T17:17:14.190Z,7.72
2022-10-18T17:19:41.389Z,7.90
2022-10-18T17:22:08.642Z,8.85
2022-10-18T17:24:36.222Z,8.75
2022-10-18T17:27:03.777Z,9.80
2022-10-18T17:29:31.125Z,9.07
2022-10-18T17:31:58.715Z,11.45
2022-10-18T17:34:26.375Z,11.38
2022-10-18T17:36:54.345Z,9.23
2022-10-18T17:39:21.575Z,12.40
2022-10-18T17:41:48.777Z,11.15
2022-10-18T17:44:16.416Z,11.80
2022-10-18T17:46:43.743Z,10.25
2022-10-18T17:49:10.968Z,12.75
2022-10-18T17:51:38.116Z,13.20
2022-10-18T17:54:06.946Z,13.20
2022-10-18T17:56:35.625Z,11.95
2022-10-18T17:59:03.401Z,17.35
2022-10-18T18:01:30.588Z,13.88
2022-10-18T18:04:03.195Z,14.07
2022-10-18T18:06:36.326Z,14.65
2022-10-18T18:09:11.249Z,9.77
2022-10-18T18:11:43.655Z,12.88
2022-10-18T18:16:43.147Z,12.90
2022-10-18T18:19:11.610Z,14.05
2022-10-18T18:21:39.933Z,11.45
2022-10-18T18:24:08.389Z,12.75
2022-10-18T18:26:36.406Z,11.70
2022-10-18T18:29:04.334Z,11.15
2022-10-18T18:31:37.749Z,12.15
2022-10-18T18:34:08.770Z,13.25
2022-10-18T18:36:35.960Z,10.07
2022-10-18T18:39:05.545Z,11.75
2022-10-18T18:41:33.316Z,12.82
2022-10-18T18:44:05.766Z,10.60
2022-10-18T18:49:08.071Z,9.60
2022-10-18T18:51:38.093Z,10.10
2022-10-18T18:54:06.103Z,10.32
2022-10-18T18:56:34.123Z,11.30
2022-10-18T18:59:01.426Z,11.35
2022-10-18T19:01:36.211Z,12.23
2022-10-18T19:04:06.221Z,14.05
2022-10-18T19:06:41.217Z,14.25
2022-10-18T19:09:22.558Z,15.98
2022-10-18T19:11:53.540Z,14.63
2022-10-18T19:16:59.082Z,15.98
2022-10-18T19:19:30.049Z,14.73
2022-10-18T19:22:04.478Z,12.65
2022-10-18T19:24:32.627Z,17.27
2022-10-18T19:27:09.726Z,16.08
2022-10-18T19:29:39.811Z,13.23
2022-10-18T19:32:12.308Z,14.52
2022-10-18T19:34:40.113Z,14.95
2022-10-18T19:37:09.494Z,14.80
2022-10-18T19:39:36.832Z,13.20
2022-10-18T19:42:08.933Z,14.13
2022-10-18T19:44:37.495Z,13.25
2022-10-18T19:47:07.209Z,13.25
2022-10-18T19:49:34.506Z,15.07
2022-10-18T19:52:01.667Z,18.60
2022-10-18T19:54:28.881Z,17.33
2022-10-18T19:56:56.043Z,15.15
2022-10-18T19:59:24.135Z,16.08
2022-10-18T20:01:51.472Z,14.40
2022-10-18T20:04:18.650Z,16.80
2022-10-18T20:06:45.973Z,17.40
2022-10-18T20:09:16.275Z,16.25
2022-10-18T20:11:46.721Z,15.57
2022-10-18T20:14:13.909Z,19.52
2022-10-18T20:16:41.188Z,18.08
2022-10-18T20:19:08.553Z,19.15
2022-10-18T20:21:36.420Z,19.75
2022-10-18T20:24:06.071Z,19.40
2022-10-18T20:26:35.812Z,17.17
2022-10-18T20:29:03.986Z,18.92
2022-10-18T20:31:39.422Z,18.67
2022-10-18T20:34:11.813Z,20.13
2022-10-18T20:36:40.237Z,20.95
2022-10-18T20:39:07.868Z,21.63
2022-10-18T20:41:41.369Z,22.65
2022-10-18T20:44:14.080Z,22.67
2022-10-18T20:49:12.620Z,22.13
2022-10-18T20:51:39.942Z,19.60
2022-10-18T20:54:09.914Z,24.13
2022-10-18T20:56:38.773Z,23.02
2022-10-18T20:59:09.734Z,28.33
2022-10-18T21:01:39.453Z,26.35
2022-10-18T21:04:10.009Z,25.10
2022-10-18T21:06:41.837Z,20.95
2022-10-18T21:09:19.004Z,22.65
2022-10-18T21:11:50.061Z,23.75
2022-10-18T21:14:22.770Z,23.70
2022-10-18T21:16:52.290Z,24.05
2022-10-18T21:19:26.843Z,24.60
2022-10-18T21:21:57.290Z,26.23
2022-10-18T21:24:26.486Z,25.30
2022-10-18T21:26:54.656Z,23.55
2022-10-18T21:29:24.546Z,21.00
2022-10-18T21:31:58.030Z,22.15
2022-10-18T21:34:25.573Z,21.10
2022-10-18T21:36:52.670Z,22.00
2022-10-18T21:41:52.033Z,21.07
2022-10-18T21:44:19.222Z,29.05
2022-10-18T21:46:46.884Z,25.25
2022-10-18T21:49:15.730Z,23.80
2022-10-18T21:51:43.946Z,21.65
2022-10-18T21:54:16.403Z,20.23
2022-10-18T21:56:44.067Z,22.70
2022-10-18T21:59:12.928Z,24.13
2022-10-18T22:01:40.679Z,24.35
2022-10-18T22:04:20.981Z,20.05
2022-10-18T22:06:48.234Z,25.67
2022-10-18T22:09:16.032Z,24.65
2022-10-18T22:11:50.957Z,25.50
2022-10-18T22:14:18.413Z,25.98
2022-10-18T22:16:45.527Z,27.88
2022-10-18T22:19:13.129Z,29.85
2022-10-18T22:21:40.573Z,25.88
2022-10-18T22:24:09.881Z,29.90
2022-10-18T22:26:41.071Z,28.65
2022-10-18T22:29:16.703Z,28.63
2022-10-18T22:31:50.151Z,33.35
2022-10-18T22:34:21.846Z,30.50
2022-10-18T22:36:48.933Z,34.28
2022-10-18T22:39:17.389Z,29.95
2022-10-18T22:41:46.468Z,30.13
2022-10-18T22:44:14.957Z,29.20
2022-10-18T22:46:46.314Z,35.13
2022-10-18T22:49:13.615Z,35.40
2022-10-18T22:51:41.442Z,33.42
2022-10-18T22:54:09.263Z,38.33
2022-10-18T22:56:36.528Z,32.42
2022-10-18T22:59:04.521Z,41.80
2022-10-18T23:01:31.789Z,39.35
2022-10-18T23:04:01.037Z,38.85
2022-10-18T23:06:50.995Z,39.67
2022-10-18T23:09:37.838Z,41.75
2022-10-18T23:12:09.201Z,41.75
2022-10-18T23:14:37.068Z,41.50
2022-10-18T23:17:11.942Z,48.00
2022-10-18T23:19:39.147Z,55.00
2022-10-18T23:22:06.395Z,48.70
2022-10-18T23:24:33.541Z,45.85
2022-10-18T23:27:01.345Z,48.47
2022-10-18T23:29:28.483Z,50.53
2022-10-18T23:31:55.618Z,44.30
2022-10-18T23:34:23.063Z,39.30
2022-10-18T23:36:50.153Z,44.63
2022-10-18T23:39:17.244Z,41.10
2022-10-18T23:41:44.484Z,49.05
2022-10-18T23:44:11.622Z,42.20
2022-10-18T23:46:38.645Z,40.00
2022-10-18T23:49:06.020Z,46.15
2022-10-18T23:51:33.117Z,42.75
2022-10-18T23:54:00.386Z,42.20
2022-10-18T23:56:27.543Z,39.35
2022-10-18T23:58:56.774Z,41.15
